»·PEaware :: CFC412 KPDX-CYVR

CFC412 :: KPDX-CYVR

FLIGHT INFORMATION

Flight Status: Arrived
Operator:
Canadian Armed Forces
More flights by this operator :: More flights under this callsign
Pilot: Anonymous 24180 (24180)
Aircraft: AIRBUS A320
(A320)
More flights by this aircraft type
Origin: KPDX Portland Intl
United States
Destination: CYVR Vancouver Intl
Canada
More flights between these airports :: More routes between these airports
Route: +BTG J1 SEA PAE GRIZZ6
File this flight plan on PilotEdge
Remarks: RMK / SIMBRIEF
Altitude:
(Current/Filed)
38,000ft
Speed:
(Current/Filed)
458kts
Departed: 19-Oct-20 11:54 AM
Arrived: 19-Oct-20 12:43 PM
Distance/Time
Traveled:
217nm/0:49
Distance/Time
To Go:
Arrived

Flight Plot

Page will automatically refresh every two minutes.

Flight plan parsing failed; only flown route is shown


Map Options




Map Legend


Flown Route
Filed Route
Departure Airport
Arrival Airport
Navaid (VOR, NDB)
Fix

Horizontal Profiles

Position Reports

Time Latitude Longitude Heading Altitude Ground
Speed
19-Oct-20 11:32 45.591563 -122.595180 187 35ft 0kts
19-Oct-20 11:33 45.591563 -122.595180 187 35ft 0kts
19-Oct-20 11:34 45.591563 -122.595180 187 35ft 0kts
19-Oct-20 11:35 45.591563 -122.595180 187 35ft 0kts
19-Oct-20 11:36 45.591563 -122.595180 187 35ft 0kts
19-Oct-20 11:37 45.591563 -122.595180 187 35ft 0kts
19-Oct-20 11:38 45.591563 -122.595180 187 35ft 0kts
19-Oct-20 11:39 45.591563 -122.595180 187 35ft 0kts
19-Oct-20 11:40 45.591563 -122.595180 187 35ft 0kts
19-Oct-20 11:41 45.591563 -122.595180 187 35ft 0kts
19-Oct-20 11:41 45.591564 -122.595180 187 35ft 0kts
19-Oct-20 11:43 45.591564 -122.595180 187 35ft 0kts
19-Oct-20 11:43 45.591564 -122.595180 187 35ft 0kts
19-Oct-20 11:45 45.591564 -122.595180 187 35ft 0kts
19-Oct-20 11:45 45.591921 -122.595098 188 35ft 2kts
19-Oct-20 11:46 45.592263 -122.594528 285 36ft 2kts
19-Oct-20 11:47 45.592221 -122.594388 302 36ft 0kts
19-Oct-20 11:48 45.592221 -122.594388 302 36ft 0kts
19-Oct-20 11:49 45.592221 -122.594388 302 36ft 0kts
19-Oct-20 11:50 45.593204 -122.596931 298 35ft 12kts
19-Oct-20 11:51 45.594319 -122.597684 41 36ft 0kts
19-Oct-20 11:52 45.594447 -122.597509 44 36ft 8kts
19-Oct-20 11:53 45.587153 -122.575886 116 297ft 166kts
19-Oct-20 11:54 45.573961 -122.497616 100 3297ft 253kts
19-Oct-20 11:55 45.559373 -122.386235 100 6311ft 303kts
19-Oct-20 11:56 45.541848 -122.274732 101 9636ft 330kts
19-Oct-20 11:57 45.527100 -122.147613 72 11725ft 381kts
19-Oct-20 11:58 45.597705 -122.059209 353 13537ft 360kts
19-Oct-20 11:59 45.664300 -122.141984 287 14972ft 340kts
19-Oct-20 12:00 45.687758 -122.268122 287 14977ft 342kts
19-Oct-20 12:01 45.712593 -122.401348 287 15829ft 351kts
19-Oct-20 12:02 45.751418 -122.529283 313 18165ft 358kts
19-Oct-20 12:03 45.847600 -122.574784 358 20138ft 398kts
19-Oct-20 12:04 45.959381 -122.556990 358 21887ft 408kts
19-Oct-20 12:05 46.074412 -122.538354 359 23477ft 417kts
19-Oct-20 12:06 46.191385 -122.519173 358 24929ft 426kts
19-Oct-20 12:07 46.311036 -122.499447 358 26240ft 434kts
19-Oct-20 12:08 46.432822 -122.479293 358 27360ft 442kts
19-Oct-20 12:09 46.555504 -122.458831 358 28717ft 441kts
19-Oct-20 12:10 46.677660 -122.438430 358 30172ft 436kts
19-Oct-20 12:11 46.798435 -122.418117 358 31575ft 432kts
19-Oct-20 12:12 46.917968 -122.397967 357 32846ft 429kts
19-Oct-20 12:13 47.037164 -122.377786 356 33932ft 429kts
19-Oct-20 12:14 47.156188 -122.357530 355 34231ft 426kts
19-Oct-20 12:15 47.273662 -122.337460 356 34231ft 428kts
19-Oct-20 12:16 47.392425 -122.317061 356 34236ft 428kts
19-Oct-20 12:17 47.505983 -122.305101 352 34242ft 422kts
19-Oct-20 12:18 47.621648 -122.297510 352 34229ft 422kts
19-Oct-20 12:19 47.738402 -122.289825 352 33949ft 419kts
19-Oct-20 12:20 47.854669 -122.282143 352 31138ft 419kts
19-Oct-20 12:21 47.969578 -122.292127 341 27823ft 411kts
19-Oct-20 12:22 48.083021 -122.325014 342 24566ft 425kts
19-Oct-20 12:23 48.197782 -122.358305 342 21750ft 409kts
19-Oct-20 12:24 48.306904 -122.390186 342 19103ft 388kts
19-Oct-20 12:25 48.410865 -122.420656 343 16481ft 370kts
19-Oct-20 12:26 48.509253 -122.449617 343 13923ft 356kts
19-Oct-20 12:27 48.600696 -122.476589 343 12825ft 309kts
19-Oct-20 12:28 48.678566 -122.499679 342 12234ft 260kts
19-Oct-20 12:29 48.732981 -122.550818 305 11626ft 230kts
19-Oct-20 12:30 48.780742 -122.616284 334 10091ft 261kts
19-Oct-20 12:31 48.850452 -122.653350 333 8293ft 268kts
19-Oct-20 12:32 48.921418 -122.691138 334 6684ft 270kts
19-Oct-20 12:33 48.992665 -122.729046 336 5174ft 272kts
19-Oct-20 12:34 49.062782 -122.766409 337 4277ft 251kts
19-Oct-20 12:35 49.124866 -122.799645 338 3885ft 221kts
19-Oct-20 12:36 49.151742 -122.867687 277 3510ft 171kts
19-Oct-20 12:37 49.158827 -122.931373 276 3016ft 141kts
19-Oct-20 12:38 49.165464 -122.990447 276 2228ft 138kts
19-Oct-20 12:39 49.171814 -123.046869 277 1505ft 131kts
19-Oct-20 12:40 49.178027 -123.101768 277 812ft 130kts
19-Oct-20 12:41 49.184259 -123.156782 278 119ft 129kts
19-Oct-20 12:42 49.187660 -123.184053 101 20ft 1kts
19-Oct-20 12:43 49.189173 -123.180783 9 20ft 11kts
19-Oct-20 12:44 49.191536 -123.182220 12 20ft 10kts
19-Oct-20 12:45 49.191853 -123.182129 10 20ft 0kts
19-Oct-20 12:46 49.191853 -123.182129 10 20ft 0kts
19-Oct-20 12:47 49.191853 -123.182129 10 20ft 0kts
19-Oct-20 12:48 49.191853 -123.182129 10 20ft 0kts
19-Oct-20 12:49 49.191853 -123.182129 10 20ft 0kts
19-Oct-20 12:50 49.191853 -123.182129 10 20ft 0kts
19-Oct-20 12:51 49.191853 -123.182129 10 20ft 0kts

Navigation Log

Ident Type
Flight plan parsing failed, navigation log unavailable